Time;durP1;ratioP1;P1;durP2;ratioP2;P2;SDS_P1;SDS_P2;PMS_P1;PMS_P2;Temp;Humidity;BMP_temperature;BMP_pressure;BME280_temperature;BME280_humidity;BME280_pressure;Samples;Min_cycle;Max_cycle;Signal;HPM_P1;HPM_P2
2023/04/02 00:01:26;;;;;;;;;;;;;;;;;;5027529;28;20028;-67
2023/04/02 00:04:02;;;;;;;7.30;3.50;;;;;;;;;;5021337;28;19913;-68
2023/04/02 00:06:33;;;;;;;7.30;3.65;;;;;;;;;;5022126;28;20185;-68
2023/04/02 00:09:03;;;;;;;7.70;4.10;;;;;;;;;;5025667;28;20527;-68
2023/04/02 00:11:34;;;;;;;7.63;4.13;;;;;;;;;;5023868;28;20025;-68
2023/04/02 00:14:00;;;;;;;7.82;4.10;;;;;;;;;;5032528;28;20036;-67
2023/04/02 00:16:26;;;;;;;7.03;3.70;;;;;;;;;;5036338;28;20029;-68
2023/04/02 00:18:52;;;;;;;7.90;4.05;;;;;;;;;;5026398;28;20068;-68
2023/04/02 00:21:23;;;;;;;8.25;3.60;;;;;;;;;;5025195;28;20049;-67
2023/04/02 00:23:48;;;;;;;6.55;3.30;;;;;;;;;;5022007;28;20013;-67
2023/04/02 00:26:27;;;;;;;7.40;3.23;;;;;;;;;;5024965;28;20024;-68
2023/04/02 00:28:52;;;;;;;8.13;3.72;;;;;;;;;;5026430;28;20048;-69
2023/04/02 00:31:18;;;;;;;8.93;4.22;;;;;;;;;;5025627;28;20706;-68
2023/04/02 00:33:44;;;;;;;7.43;3.35;;;;;;;;;;5027455;28;20028;-67
2023/04/02 00:36:09;;;;;;;8.90;3.20;;;;;;;;;;5026596;28;20029;-67
2023/04/02 00:38:35;;;;;;;6.93;3.43;;;;;;;;;;5020315;28;20026;-68
2023/04/02 00:41:05;;;;;;;5.17;2.50;;;;;;;;;;5021837;28;20104;-68
2023/04/02 00:43:32;;;;;;;6.30;3.15;;;;;;;;;;5022277;28;20037;-69
2023/04/02 00:46:02;;;;;;;6.45;3.30;;;;;;;;;;5025987;28;20096;-68
2023/04/02 00:48:30;;;;;;;5.97;3.05;;;;;;;;;;5022979;28;20110;-68
2023/04/02 00:50:57;;;;;;;8.38;3.53;;;;;;;;;;5024272;28;20033;-69
2023/04/02 00:53:29;;;;;;;6.72;3.80;;;;;;;;;;5020376;28;20030;-68
2023/04/02 00:55:55;;;;;;;8.02;3.90;;;;;;;;;;5023794;28;20036;-66
2023/04/02 00:58:28;;;;;;;7.93;3.58;;;;;;;;;;5024428;28;20069;-67
2023/04/02 01:00:53;;;;;;;9.30;4.45;;;;;;;;;;5016653;28;20028;-68
2023/04/02 01:03:21;;;;;;;7.85;4.18;;;;;;;;;;5017614;28;20080;-68
2023/04/02 01:05:49;;;;;;;9.82;4.68;;;;;;;;;;5023420;28;20036;-68
2023/04/02 01:08:22;;;;;;;9.73;4.13;;;;;;;;;;5024422;28;20385;-69
2023/04/02 01:10:47;;;;;;;7.43;4.32;;;;;;;;;;5021159;28;20072;-69
2023/04/02 01:13:13;;;;;;;8.23;4.13;;;;;;;;;;5026687;28;20025;-69
2023/04/02 01:15:40;;;;;;;8.80;4.68;;;;;;;;;;5022943;28;20128;-68
2023/04/02 01:18:05;;;;;;;8.73;3.85;;;;;;;;;;5021575;28;20021;-68
2023/04/02 01:20:33;;;;;;;7.43;3.70;;;;;;;;;;5023233;28;20017;-69
2023/04/02 01:23:17;;;;;;;8.18;4.22;;;;;;;;;;5022213;28;20057;-67
2023/04/02 01:26:03;;;;;;;7.72;4.15;;;;;;;;;;5028167;28;20380;-67
2023/04/02 01:28:35;;;;;;;9.23;4.22;;;;;;;;;;5024531;28;20021;-66
2023/04/02 01:31:00;;;;;;;8.05;3.97;;;;;;;;;;5024487;28;20557;-67
2023/04/02 01:33:31;;;;;;;13.40;4.30;;;;;;;;;;5019522;28;20578;-67
2023/04/02 01:36:01;;;;;;;7.38;4.10;;;;;;;;;;5026605;28;20021;-68
2023/04/02 01:38:28;;;;;;;7.43;3.88;;;;;;;;;;5021027;28;20022;-68
2023/04/02 01:41:07;;;;;;;8.30;4.22;;;;;;;;;;5018901;28;20026;-68
2023/04/02 01:43:55;;;;;;;8.82;3.92;;;;;;;;;;5029000;28;20039;-69
2023/04/02 01:46:25;;;;;;;6.72;3.50;;;;;;;;;;5026485;28;20481;-70
2023/04/02 01:48:51;;;;;;;8.32;3.67;;;;;;;;;;5029574;28;20543;-68
2023/04/02 01:51:27;;;;;;;8.27;4.18;;;;;;;;;;5030718;28;20033;-70
2023/04/02 01:53:53;;;;;;;7.03;3.75;;;;;;;;;;5022504;28;20080;-70
2023/04/02 01:56:18;;;;;;;7.07;3.65;;;;;;;;;;5025945;28;20496;-68
2023/04/02 01:58:44;;;;;;;6.73;3.63;;;;;;;;;;5032546;28;20032;-69
2023/04/02 02:01:15;;;;;;;6.47;3.00;;;;;;;;;;5020950;28;20026;-69
2023/04/02 02:03:41;;;;;;;8.55;3.60;;;;;;;;;;5024100;28;20018;-71
2023/04/02 02:06:08;;;;;;;6.45;3.08;;;;;;;;;;5025013;28;20515;-69
2023/04/02 02:08:37;;;;;;;8.05;3.63;;;;;;;;;;5029382;28;20021;-71
2023/04/02 02:11:03;;;;;;;9.23;3.35;;;;;;;;;;5034005;28;20075;-69
2023/04/02 02:13:30;;;;;;;7.15;3.22;;;;;;;;;;5027750;28;20030;-68
2023/04/02 02:15:57;;;;;;;6.88;3.15;;;;;;;;;;5027502;28;20143;-68
2023/04/02 02:18:22;;;;;;;8.40;3.33;;;;;;;;;;5028110;28;20013;-69
2023/04/02 02:20:48;;;;;;;5.25;2.90;;;;;;;;;;5026282;28;20036;-68
2023/04/02 02:23:14;;;;;;;6.22;3.22;;;;;;;;;;5021682;28;20500;-69
2023/04/02 02:25:39;;;;;;;8.05;3.60;;;;;;;;;;5030328;28;20061;-67
2023/04/02 02:28:11;;;;;;;6.63;3.40;;;;;;;;;;5028558;28;20036;-69
2023/04/02 02:30:37;;;;;;;6.28;3.03;;;;;;;;;;5028675;28;20657;-69
2023/04/02 02:33:15;;;;;;;7.07;3.13;;;;;;;;;;5028668;28;20039;-69
2023/04/02 02:35:47;;;;;;;7.00;3.33;;;;;;;;;;5031546;28;20089;-70
2023/04/02 02:38:22;;;;;;;6.95;3.60;;;;;;;;;;5021420;28;20018;-69
2023/04/02 02:40:49;;;;;;;6.10;2.95;;;;;;;;;;5024115;28;20020;-69
2023/04/02 02:43:15;;;;;;;6.13;3.10;;;;;;;;;;5019840;28;20477;-68
2023/04/02 02:45:41;;;;;;;5.90;2.95;;;;;;;;;;5027415;28;20457;-69
2023/04/02 02:48:11;;;;;;;6.28;2.95;;;;;;;;;;5037455;28;20090;-68
2023/04/02 02:50:36;;;;;;;6.63;2.88;;;;;;;;;;5030514;28;20029;-68
2023/04/02 02:53:04;;;;;;;5.38;2.70;;;;;;;;;;5031776;28;20408;-68
2023/04/02 02:55:31;;;;;;;4.60;2.40;;;;;;;;;;5029177;28;20036;-67
2023/04/02 02:58:00;;;;;;;5.35;2.30;;;;;;;;;;5019744;28;20022;-68
2023/04/02 03:00:26;;;;;;;5.00;2.50;;;;;;;;;;5021514;28;20022;-68
2023/04/02 03:02:52;;;;;;;4.57;2.53;;;;;;;;;;5032408;28;20025;-68
2023/04/02 03:05:20;;;;;;;4.88;2.70;;;;;;;;;;5033597;28;20488;-67
2023/04/02 03:07:45;;;;;;;4.95;2.42;;;;;;;;;;5033811;28;20032;-67
2023/04/02 03:10:19;;;;;;;4.95;2.40;;;;;;;;;;5029760;28;20021;-67
2023/04/02 03:13:03;;;;;;;5.13;2.42;;;;;;;;;;5032037;28;20022;-66
2023/04/02 03:15:34;;;;;;;4.25;2.13;;;;;;;;;;5022416;28;20026;-67
2023/04/02 03:18:01;;;;;;;4.50;2.20;;;;;;;;;;5030374;28;20914;-69
2023/04/02 03:20:33;;;;;;;4.53;2.13;;;;;;;;;;5027817;28;20058;-68
2023/04/02 03:23:11;;;;;;;4.68;2.30;;;;;;;;;;5025775;28;20103;-69
2023/04/02 03:25:41;;;;;;;4.50;2.30;;;;;;;;;;5031244;28;20024;-68
2023/04/02 03:28:10;;;;;;;4.18;2.00;;;;;;;;;;5024159;28;20018;-68
2023/04/02 03:30:37;;;;;;;4.60;2.10;;;;;;;;;;5023252;28;20037;-68
2023/04/02 03:33:05;;;;;;;4.68;2.30;;;;;;;;;;5028641;28;20056;-67
2023/04/02 03:35:39;;;;;;;4.07;1.83;;;;;;;;;;5029843;28;20109;-69
2023/04/02 03:38:21;;;;;;;4.20;1.55;;;;;;;;;;5027907;28;20100;-68
2023/04/02 03:41:05;;;;;;;6.03;1.50;;;;;;;;;;5030415;28;20025;-69
2023/04/02 03:43:33;;;;;;;3.72;1.40;;;;;;;;;;5028117;28;20489;-67
2023/04/02 03:46:12;;;;;;;4.72;1.60;;;;;;;;;;5020857;28;20104;-69
2023/04/02 03:48:39;;;;;;;3.97;1.70;;;;;;;;;;5017491;28;20451;-69
2023/04/02 03:51:06;;;;;;;4.00;1.77;;;;;;;;;;5019210;28;20025;-69
2023/04/02 03:53:31;;;;;;;4.05;1.83;;;;;;;;;;5030730;28;20025;-68
2023/04/02 03:55:57;;;;;;;3.95;1.80;;;;;;;;;;5021425;28;20439;-69
2023/04/02 03:58:25;;;;;;;3.70;1.58;;;;;;;;;;5030851;28;20095;-68
2023/04/02 04:01:03;;;;;;;4.28;1.67;;;;;;;;;;5027853;28;20613;-67
2023/04/02 04:03:30;;;;;;;4.35;1.77;;;;;;;;;;5017664;28;20072;-67
2023/04/02 04:06:05;;;;;;;4.20;1.63;;;;;;;;;;5026823;28;20017;-69
2023/04/02 04:08:53;;;;;;;4.45;1.75;;;;;;;;;;5023769;28;20064;-67
2023/04/02 04:11:21;;;;;;;4.32;1.75;;;;;;;;;;5017377;28;20045;-69
2023/04/02 04:13:50;;;;;;;4.25;1.83;;;;;;;;;;5027894;28;20378;-68
2023/04/02 04:16:21;;;;;;;4.70;1.60;;;;;;;;;;5022530;28;20044;-68
2023/04/02 04:18:51;;;;;;;4.18;1.85;;;;;;;;;;5021859;28;20018;-69
2023/04/02 04:21:35;;;;;;;5.03;2.30;;;;;;;;;;5027342;28;20032;-69
2023/04/02 04:24:04;;;;;;;;;;;;;;;;;;5028255;28;20067;-67
2023/04/02 04:26:35;;;;;;;4.70;2.10;;;;;;;;;;5026764;28;20269;-68
2023/04/02 04:29:17;;;;;;;4.60;1.90;;;;;;;;;;5016384;28;20469;-70
2023/04/02 04:31:45;;;;;;;4.45;1.95;;;;;;;;;;5026189;28;20075;-68
2023/04/02 04:34:14;;;;;;;5.13;2.20;;;;;;;;;;5025778;28;20022;-69
2023/04/02 04:36:54;;;;;;;5.72;2.42;;;;;;;;;;5025620;28;20105;-70
2023/04/02 04:39:28;;;;;;;5.10;2.50;;;;;;;;;;5026820;28;20044;-69
2023/04/02 04:41:54;;;;;;;6.20;2.78;;;;;;;;;;5014065;28;20033;-69
2023/04/02 04:44:23;;;;;;;5.25;2.58;;;;;;;;;;5014309;28;20038;-70
2023/04/02 04:46:55;;;;;;;7.43;3.33;;;;;;;;;;5018532;28;20048;-68
2023/04/02 04:49:46;;;;;;;6.15;2.70;;;;;;;;;;5021431;28;20105;-69
2023/04/02 04:52:15;;;;;;;5.20;2.70;;;;;;;;;;5021746;28;20117;-69
2023/04/02 04:54:41;;;;;;;6.15;2.65;;;;;;;;;;5023765;28;20095;-69
2023/04/02 04:57:16;;;;;;;6.45;2.85;;;;;;;;;;5018087;28;20468;-68
2023/04/02 04:59:43;;;;;;;5.50;2.35;;;;;;;;;;5021293;28;20036;-68
2023/04/02 05:02:11;;;;;;;4.95;2.50;;;;;;;;;;5021354;28;20070;-68
2023/04/02 05:04:41;;;;;;;7.68;2.88;;;;;;;;;;5018288;28;20029;-68
2023/04/02 05:07:12;;;;;;;5.32;2.25;;;;;;;;;;5023878;28;20040;-68
2023/04/02 05:09:48;;;;;;;5.07;2.20;;;;;;;;;;5028360;28;20091;-67
2023/04/02 05:12:33;;;;;;;6.10;2.47;;;;;;;;;;5022122;28;20473;-67
2023/04/02 05:15:21;;;;;;;6.32;2.50;;;;;;;;;;5026023;28;20037;-68
2023/04/02 05:17:50;;;;;;;6.55;2.58;;;;;;;;;;5017793;28;20064;-68
2023/04/02 05:20:15;;;;;;;6.70;2.70;;;;;;;;;;5014485;28;20441;-68
2023/04/02 05:22:40;;;;;;;5.97;2.53;;;;;;;;;;5024656;28;20100;-68
2023/04/02 05:25:11;;;;;;;7.05;2.30;;;;;;;;;;5024311;28;20021;-68
2023/04/02 05:27:43;;;;;;;5.60;2.50;;;;;;;;;;5024567;28;20017;-68
2023/04/02 05:30:11;;;;;;;5.40;2.38;;;;;;;;;;5025794;28;20061;-68
2023/04/02 05:32:40;;;;;;;5.97;2.38;;;;;;;;;;5021715;28;20033;-69
2023/04/02 05:35:06;;;;;;;6.18;2.30;;;;;;;;;;5021581;28;20030;-68
2023/04/02 05:37:33;;;;;;;5.82;2.60;;;;;;;;;;5023144;28;20021;-67
2023/04/02 05:39:58;;;;;;;;;;;;;;;;;;5023854;28;20026;-68
2023/04/02 05:42:28;;;;;;;7.40;3.08;;;;;;;;;;5026030;28;19905;-69
2023/04/02 05:45:12;;;;;;;6.10;2.83;;;;;;;;;;5023754;28;20017;-68
2023/04/02 05:47:41;;;;;;;5.20;2.30;;;;;;;;;;5019971;28;20018;-70
2023/04/02 05:50:06;;;;;;;5.78;2.78;;;;;;;;;;5026768;28;20025;-67
2023/04/02 05:52:35;;;;;;;6.23;2.50;;;;;;;;;;5029167;28;20026;-67
2023/04/02 05:55:02;;;;;;;6.63;3.10;;;;;;;;;;5021494;28;20022;-68
2023/04/02 05:57:33;;;;;;;5.47;2.60;;;;;;;;;;5024669;28;20381;-68
2023/04/02 06:00:02;;;;;;;5.63;2.60;;;;;;;;;;5028490;28;20113;-68
2023/04/02 06:02:30;;;;;;;6.00;2.70;;;;;;;;;;5031473;28;20025;-69
2023/04/02 06:04:58;;;;;;;5.35;2.45;;;;;;;;;;5026752;28;20029;-68
2023/04/02 06:07:30;;;;;;;5.45;2.28;;;;;;;;;;5021040;28;20078;-68
2023/04/02 06:09:59;;;;;;;7.22;2.25;;;;;;;;;;5021797;28;20025;-69
2023/04/02 06:12:24;;;;;;;6.05;2.63;;;;;;;;;;5024144;28;20429;-69
2023/04/02 06:14:49;;;;;;;4.97;2.22;;;;;;;;;;5030642;28;20136;-67
2023/04/02 06:17:15;;;;;;;5.03;2.10;;;;;;;;;;5032099;28;20112;-67
2023/04/02 06:19:40;;;;;;;5.78;2.28;;;;;;;;;;5031091;28;20564;-69
2023/04/02 06:22:24;;;;;;;4.67;2.10;;;;;;;;;;5023727;28;20040;-69
2023/04/02 06:24:57;;;;;;;6.32;2.65;;;;;;;;;;5022528;28;20440;-69
2023/04/02 06:27:24;;;;;;;6.65;2.78;;;;;;;;;;5032430;28;20033;-69
2023/04/02 06:29:51;;;;;;;;;;;;;;;;;;5034045;28;20155;-68
2023/04/02 06:32:18;;;;;;;6.80;2.47;;;;;;;;;;5021410;28;20341;-69
2023/04/02 06:34:44;;;;;;;6.65;2.80;;;;;;;;;;5031243;28;20026;-68
2023/04/02 06:37:28;;;;;;;5.93;2.70;;;;;;;;;;5030349;28;20116;-71
2023/04/02 06:39:53;;;;;;;5.40;2.00;;;;;;;;;;5018315;28;20049;-67
2023/04/02 06:42:22;;;;;;;7.85;2.10;;;;;;;;;;5026556;28;20052;-68
2023/04/02 06:44:48;;;;;;;5.28;2.17;;;;;;;;;;5031371;28;20472;-70
2023/04/02 06:47:32;;;;;;;5.13;1.95;;;;;;;;;;5032052;28;20025;-67
2023/04/02 06:50:00;;;;;;;4.88;1.85;;;;;;;;;;5028248;28;20515;-68
2023/04/02 06:52:31;;;;;;;5.03;2.10;;;;;;;;;;5029101;28;20052;-66
2023/04/02 06:54:56;;;;;;;5.13;2.10;;;;;;;;;;5015699;28;20049;-67
2023/04/02 06:57:22;;;;;;;5.40;2.20;;;;;;;;;;5025145;28;20061;-69
2023/04/02 06:59:47;;;;;;;4.97;1.92;;;;;;;;;;5022935;28;20381;-69
2023/04/02 07:02:20;;;;;;;5.05;2.17;;;;;;;;;;5027491;28;20108;-69
2023/04/02 07:04:45;;;;;;;5.70;2.15;;;;;;;;;;5026283;28;20091;-68
2023/04/02 07:07:10;;;;;;;5.38;2.33;;;;;;;;;;5027643;28;20477;-67
2023/04/02 07:09:35;;;;;;;6.30;2.30;;;;;;;;;;5028631;28;20049;-67
2023/04/02 07:12:01;;;;;;;6.32;2.33;;;;;;;;;;5029068;28;20029;-67
2023/04/02 07:14:26;;;;;;;6.10;2.28;;;;;;;;;;5023928;28;20022;-69
2023/04/02 07:16:51;;;;;;;5.73;2.20;;;;;;;;;;5024702;28;20049;-68
2023/04/02 07:19:18;;;;;;;5.90;2.42;;;;;;;;;;5022547;28;20041;-65
2023/04/02 07:21:43;;;;;;;6.13;2.20;;;;;;;;;;5027683;28;20033;-67
2023/04/02 07:24:08;;;;;;;6.13;2.40;;;;;;;;;;5025500;28;20030;-66
2023/04/02 07:26:33;;;;;;;5.85;2.05;;;;;;;;;;5028547;28;20033;-66
2023/04/02 07:28:58;;;;;;;5.13;2.40;;;;;;;;;;5025817;28;20559;-67
2023/04/02 07:31:25;;;;;;;6.20;2.57;;;;;;;;;;5028681;28;20105;-67
2023/04/02 07:33:50;;;;;;;7.40;2.55;;;;;;;;;;5026758;28;20026;-67
2023/04/02 07:36:17;;;;;;;6.47;2.75;;;;;;;;;;5029246;28;20427;-67
2023/04/02 07:38:42;;;;;;;6.65;1.80;;;;;;;;;;5022622;28;20500;-67
2023/04/02 07:41:07;;;;;;;6.40;2.43;;;;;;;;;;5025207;28;20061;-66
2023/04/02 07:43:34;;;;;;;5.77;2.40;;;;;;;;;;5016344;28;20026;-66
2023/04/02 07:45:59;;;;;;;5.55;2.33;;;;;;;;;;5013925;28;20342;-65
2023/04/02 07:48:24;;;;;;;5.13;2.10;;;;;;;;;;5025996;28;20021;-66
2023/04/02 07:50:50;;;;;;;6.93;2.38;;;;;;;;;;5027734;28;21035;-67
2023/04/02 07:53:28;;;;;;;6.90;2.35;;;;;;;;;;5026986;28;20021;-66
2023/04/02 07:55:54;;;;;;;6.60;2.38;;;;;;;;;;5030540;28;20025;-67
2023/04/02 07:58:20;;;;;;;5.35;2.35;;;;;;;;;;5032884;28;20029;-67
2023/04/02 08:00:45;;;;;;;6.15;2.40;;;;;;;;;;5027751;28;20441;-67
2023/04/02 08:03:11;;;;;;;6.63;2.40;;;;;;;;;;5025756;28;20022;-66
2023/04/02 08:05:37;;;;;;;4.85;2.13;;;;;;;;;;5024220;28;20025;-67
2023/04/02 08:08:02;;;;;;;6.28;2.65;;;;;;;;;;5015347;28;20029;-67
2023/04/02 08:10:27;;;;;;;7.93;2.60;;;;;;;;;;5026258;28;20025;-66
2023/04/02 08:12:52;;;;;;;5.47;2.13;;;;;;;;;;5015106;28;20486;-66
2023/04/02 08:15:17;;;;;;;7.00;2.73;;;;;;;;;;5016006;28;20041;-67
2023/04/02 08:17:43;;;;;;;6.95;2.50;;;;;;;;;;5030579;28;21050;-66
2023/04/02 08:20:18;;;;;;;7.10;2.35;;;;;;;;;;5020995;28;20033;-66
2023/04/02 08:22:44;;;;;;;7.15;2.60;;;;;;;;;;5019102;28;20421;-66
2023/04/02 08:25:09;;;;;;;8.43;2.40;;;;;;;;;;5024490;28;20025;-67
2023/04/02 08:27:35;;;;;;;5.20;2.10;;;;;;;;;;5014513;28;20018;-66
2023/04/02 08:30:00;;;;;;;6.57;2.23;;;;;;;;;;5012070;28;20393;-66
2023/04/02 08:32:27;;;;;;;6.37;2.00;;;;;;;;;;5016033;28;20456;-67
2023/04/02 08:34:52;;;;;;;6.47;2.70;;;;;;;;;;5032069;28;20283;-66
2023/04/02 08:37:18;;;;;;;7.35;2.30;;;;;;;;;;5035373;28;20025;-66
2023/04/02 08:39:43;;;;;;;5.43;2.00;;;;;;;;;;5025237;28;20396;-67
2023/04/02 08:42:20;;;;;;;5.07;2.03;;;;;;;;;;5020061;28;21019;-66
2023/04/02 08:45:06;;;;;;;5.05;1.77;;;;;;;;;;5011514;28;20535;-67
2023/04/02 08:47:35;;;;;;;5.00;2.28;;;;;;;;;;5029633;28;20060;-67
2023/04/02 08:50:02;;;;;;;6.70;2.28;;;;;;;;;;5026101;28;20037;-66
2023/04/02 08:52:33;;;;;;;5.70;2.50;;;;;;;;;;5044639;28;20075;-67
2023/04/02 08:54:59;;;;;;;6.47;2.60;;;;;;;;;;5025461;28;20109;-67
2023/04/02 08:57:28;;;;;;;6.40;2.85;;;;;;;;;;5032846;28;20547;-65
2023/04/02 08:59:57;;;;;;;5.72;2.67;;;;;;;;;;5034652;28;20036;-67
2023/04/02 09:02:28;;;;;;;7.97;3.00;;;;;;;;;;5029728;28;20025;-66
2023/04/02 09:04:56;;;;;;;6.03;3.13;;;;;;;;;;5013528;28;20381;-66
2023/04/02 09:07:21;;;;;;;5.20;2.50;;;;;;;;;;5009958;28;20537;-66
2023/04/02 09:09:47;;;;;;;5.35;2.88;;;;;;;;;;5016961;28;20048;-67
2023/04/02 09:12:20;;;;;;;5.53;2.70;;;;;;;;;;5026112;28;20614;-67
2023/04/02 09:14:56;;;;;;;6.63;3.40;;;;;;;;;;5025000;28;20009;-67
2023/04/02 09:17:22;;;;;;;6.22;2.70;;;;;;;;;;5014727;28;20022;-66
2023/04/02 09:20:00;;;;;;;6.43;2.63;;;;;;;;;;5029411;28;20026;-67
2023/04/02 09:22:30;;;;;;;4.90;2.40;;;;;;;;;;5030907;28;20493;-67
2023/04/02 09:24:56;;;;;;;5.60;1.80;;;;;;;;;;5028195;28;20068;-67
2023/04/02 09:27:24;;;;;;;5.68;2.08;;;;;;;;;;5027008;28;20072;-67
2023/04/02 09:29:55;;;;;;;6.28;2.40;;;;;;;;;;5025669;28;20018;-67
2023/04/02 09:32:38;;;;;;;6.03;2.80;;;;;;;;;;5023152;28;20068;-67
2023/04/02 09:35:04;;;;;;;4.10;2.00;;;;;;;;;;5024816;28;20112;-67
2023/04/02 09:37:31;;;;;;;4.47;2.08;;;;;;;;;;5015891;28;20520;-67
2023/04/02 09:40:10;;;;;;;8.10;2.30;;;;;;;;;;5028600;28;20029;-67
2023/04/02 09:42:37;;;;;;;6.88;2.30;;;;;;;;;;5019631;28;20083;-67
2023/04/02 09:45:11;;;;;;;5.72;2.20;;;;;;;;;;5021024;28;20496;-67
2023/04/02 09:47:37;;;;;;;5.72;2.47;;;;;;;;;;5023809;28;20040;-67
2023/04/02 09:50:20;;;;;;;5.10;2.75;;;;;;;;;;5020826;28;20099;-67
2023/04/02 09:52:46;;;;;;;5.75;2.40;;;;;;;;;;5029394;28;20025;-67
2023/04/02 09:55:14;;;;;;;7.03;2.60;;;;;;;;;;5029278;28;20022;-68
2023/04/02 09:57:40;;;;;;;8.00;3.13;;;;;;;;;;5027575;28;20037;-67
2023/04/02 10:00:22;;;;;;;6.22;2.63;;;;;;;;;;5030375;28;20036;-67
2023/04/02 10:02:59;;;;;;;6.40;2.42;;;;;;;;;;5019190;28;20024;-66
2023/04/02 10:05:25;;;;;;;6.65;2.30;;;;;;;;;;5031165;28;20101;-67
2023/04/02 10:07:52;;;;;;;8.85;2.70;;;;;;;;;;5018581;28;20014;-67
2023/04/02 10:10:29;;;;;;;6.30;2.58;;;;;;;;;;5025215;28;20083;-67
2023/04/02 10:13:13;;;;;;;5.80;2.20;;;;;;;;;;5025631;28;20041;-67
2023/04/02 10:15:45;;;;;;;7.38;3.08;;;;;;;;;;5033423;28;20029;-67
2023/04/02 10:18:15;;;;;;;5.95;2.50;;;;;;;;;;5014647;28;20080;-66
2023/04/02 10:20:41;;;;;;;5.43;2.13;;;;;;;;;;5019223;28;20435;-67
2023/04/02 10:23:13;;;;;;;6.85;2.58;;;;;;;;;;5022678;28;20112;-67
2023/04/02 10:25:41;;;;;;;5.65;2.50;;;;;;;;;;5020781;28;20041;-66
2023/04/02 10:28:17;;;;;;;7.47;3.00;;;;;;;;;;5023236;28;20009;-67
2023/04/02 10:30:42;;;;;;;5.57;2.50;;;;;;;;;;5026132;28;20101;-66
2023/04/02 10:33:20;;;;;;;7.77;2.70;;;;;;;;;;5017368;28;20143;-66
2023/04/02 10:35:45;;;;;;;3.50;1.50;;;;;;;;;;5023672;28;20021;-66
2023/04/02 10:38:21;;;;;;;4.82;1.90;;;;;;;;;;5020261;28;20054;-66
2023/04/02 10:41:05;;;;;;;5.13;1.98;;;;;;;;;;5018739;28;20494;-66
2023/04/02 10:43:49;;;;;;;4.35;1.88;;;;;;;;;;5027981;28;20366;-65
2023/04/02 10:46:26;;;;;;;5.72;1.75;;;;;;;;;;5026450;28;20043;-67
2023/04/02 10:49:00;;;;;;;6.55;2.00;;;;;;;;;;5027239;28;20100;-67
2023/04/02 10:51:45;;;;;;;5.32;1.88;;;;;;;;;;5028724;28;20033;-67
2023/04/02 10:54:32;;;;;;;5.50;1.90;;;;;;;;;;5026652;28;20159;-66
2023/04/02 10:57:03;;;;;;;7.35;1.90;;;;;;;;;;5025810;28;20522;-68
2023/04/02 10:59:33;;;;;;;4.47;2.08;;;;;;;;;;5027583;28;20143;-67
2023/04/02 11:02:00;;;;;;;5.57;2.33;;;;;;;;;;5026888;28;20075;-66
2023/04/02 11:04:36;;;;;;;5.60;2.22;;;;;;;;;;5026054;28;20444;-65
2023/04/02 11:07:03;;;;;;;5.10;1.95;;;;;;;;;;5029910;28;20039;-65
2023/04/02 11:09:31;;;;;;;4.10;1.70;;;;;;;;;;5027203;28;20017;-65
2023/04/02 11:11:57;;;;;;;5.53;1.80;;;;;;;;;;5018876;28;20084;-64
2023/04/02 11:14:22;;;;;;;;;;;;;;;;;;5021494;28;20080;-65
2023/04/02 11:16:48;;;;;;;3.88;1.67;;;;;;;;;;5025630;28;19956;-66
2023/04/02 11:19:14;;;;;;;5.32;1.77;;;;;;;;;;5024560;28;20099;-65
2023/04/02 11:21:43;;;;;;;6.22;1.60;;;;;;;;;;5027391;28;20030;-65
2023/04/02 11:24:28;;;;;;;5.68;1.90;;;;;;;;;;5012475;28;20038;-65
2023/04/02 11:27:02;;;;;;;4.05;1.50;;;;;;;;;;5019313;28;20025;-63
2023/04/02 11:29:29;;;;;;;6.30;1.60;;;;;;;;;;5015515;28;20021;-67
2023/04/02 11:32:13;;;;;;;5.13;1.83;;;;;;;;;;5028933;28;20026;-67
2023/04/02 11:34:47;;;;;;;7.55;1.90;;;;;;;;;;5020348;28;20305;-68
2023/04/02 11:37:33;;;;;;;5.20;1.80;;;;;;;;;;5020824;28;20033;-67
2023/04/02 11:40:18;;;;;;;4.30;1.63;;;;;;;;;;5020765;28;20642;-66
2023/04/02 11:42:44;;;;;;;5.32;2.15;;;;;;;;;;5022984;28;20562;-64
2023/04/02 11:45:18;;;;;;;4.50;1.80;;;;;;;;;;5019978;28;20033;-66
2023/04/02 11:48:06;;;;;;;5.28;2.10;;;;;;;;;;5017299;28;20029;-66
2023/04/02 11:50:39;;;;;;;5.13;2.10;;;;;;;;;;5026892;28;20051;-66
2023/04/02 11:53:10;;;;;;;5.68;2.00;;;;;;;;;;5013055;28;20139;-66
2023/04/02 11:55:36;;;;;;;4.80;2.30;;;;;;;;;;5022340;28;20413;-66
2023/04/02 11:58:19;;;;;;;5.50;2.13;;;;;;;;;;5014886;28;20029;-66
2023/04/02 12:00:47;;;;;;;5.22;1.90;;;;;;;;;;5018023;28;20030;-67
2023/04/02 12:03:31;;;;;;;4.75;2.08;;;;;;;;;;5014772;28;20482;-65
2023/04/02 12:06:15;;;;;;;4.80;1.80;;;;;;;;;;5017266;28;20375;-67
2023/04/02 12:08:40;;;;;;;5.60;2.20;;;;;;;;;;5021566;28;20112;-65
2023/04/02 12:11:05;;;;;;;5.93;2.05;;;;;;;;;;5014233;28;20091;-65
2023/04/02 12:13:39;;;;;;;6.87;1.93;;;;;;;;;;5021155;28;20026;-67
2023/04/02 12:16:09;;;;;;;5.13;2.10;;;;;;;;;;5019778;28;20029;-67
2023/04/02 12:18:35;;;;;;;5.78;2.13;;;;;;;;;;5018220;28;20021;-67
2023/04/02 12:21:00;;;;;;;5.82;2.25;;;;;;;;;;5026658;28;20530;-67
2023/04/02 12:23:30;;;;;;;4.68;2.05;;;;;;;;;;5011454;28;20037;-64
2023/04/02 12:26:18;;;;;;;8.13;2.47;;;;;;;;;;5018523;28;20480;-66
2023/04/02 12:28:45;;;;;;;6.30;1.80;;;;;;;;;;5023642;28;20087;-66
2023/04/02 12:31:12;;;;;;;4.95;2.17;;;;;;;;;;5022242;28;20026;-67
2023/04/02 12:33:40;;;;;;;5.63;1.83;;;;;;;;;;5027543;28;20029;-66
2023/04/02 12:36:15;;;;;;;4.60;2.00;;;;;;;;;;5014779;28;20025;-66
2023/04/02 12:38:44;;;;;;;4.78;1.95;;;;;;;;;;5021258;28;20078;-65
2023/04/02 12:41:22;;;;;;;5.93;2.05;;;;;;;;;;5008955;28;20144;-66
2023/04/02 12:43:55;;;;;;;5.70;2.17;;;;;;;;;;5007791;28;20033;-64
2023/04/02 12:46:22;;;;;;;4.95;2.03;;;;;;;;;;5025207;28;20420;-66
2023/04/02 12:48:47;;;;;;;6.25;1.80;;;;;;;;;;5026566;28;20024;-66
2023/04/02 12:51:12;;;;;;;4.70;2.00;;;;;;;;;;5017292;28;20026;-65
2023/04/02 12:53:39;;;;;;;5.73;2.00;;;;;;;;;;5028580;28;20022;-66
2023/04/02 12:56:04;;;;;;;5.80;2.08;;;;;;;;;;5029658;28;20443;-67
2023/04/02 12:58:37;;;;;;;4.68;2.08;;;;;;;;;;5026692;28;20033;-65
2023/04/02 13:01:17;;;;;;;4.88;2.03;;;;;;;;;;5018976;28;20554;-67
2023/04/02 13:03:42;;;;;;;4.80;1.90;;;;;;;;;;5027992;28;20021;-64
2023/04/02 13:06:20;;;;;;;5.10;2.28;;;;;;;;;;5027302;28;20032;-68
2023/04/02 13:08:45;;;;;;;4.13;1.90;;;;;;;;;;5022976;28;20026;-66
2023/04/02 13:11:10;;;;;;;4.70;2.07;;;;;;;;;;5019357;28;20017;-67
2023/04/02 13:13:36;;;;;;;4.32;1.75;;;;;;;;;;5029740;28;20493;-66
2023/04/02 13:16:04;;;;;;;5.10;1.90;;;;;;;;;;5026795;28;20116;-66
2023/04/02 13:18:30;;;;;;;5.15;1.88;;;;;;;;;;5022037;28;20021;-66
2023/04/02 13:20:59;;;;;;;4.03;1.55;;;;;;;;;;5015725;28;20029;-65
2023/04/02 13:23:28;;;;;;;5.68;1.52;;;;;;;;;;5028454;28;20025;-65
2023/04/02 13:25:53;;;;;;;4.72;2.00;;;;;;;;;;5031742;28;20014;-66
2023/04/02 13:28:19;;;;;;;4.18;1.38;;;;;;;;;;5032789;28;20026;-66
2023/04/02 13:30:45;;;;;;;6.38;2.08;;;;;;;;;;5030620;28;20068;-67
2023/04/02 13:33:10;;;;;;;5.70;1.50;;;;;;;;;;5034029;28;20030;-67
2023/04/02 13:35:35;;;;;;;3.95;1.23;;;;;;;;;;5037084;28;20022;-67
2023/04/02 13:38:04;;;;;;;7.15;1.67;;;;;;;;;;5037672;28;20022;-66
2023/04/02 13:40:31;;;;;;;5.47;1.25;;;;;;;;;;5024388;28;20062;-65
2023/04/02 13:42:56;;;;;;;4.05;1.40;;;;;;;;;;5017615;28;20052;-67
2023/04/02 13:45:26;;;;;;;3.90;1.30;;;;;;;;;;5024749;28;20120;-67
2023/04/02 13:47:51;;;;;;;5.07;1.30;;;;;;;;;;5025414;28;20036;-66
2023/04/02 13:50:17;;;;;;;4.78;1.50;;;;;;;;;;5015903;28;20021;-67
2023/04/02 13:52:42;;;;;;;4.53;1.67;;;;;;;;;;5014739;28;20022;-67
2023/04/02 13:55:09;;;;;;;4.70;1.40;;;;;;;;;;5014523;28;20022;-67
2023/04/02 13:57:35;;;;;;;4.68;1.60;;;;;;;;;;5013927;28;20049;-66
2023/04/02 14:00:00;;;;;;;3.55;1.30;;;;;;;;;;5018364;28;20064;-65
2023/04/02 14:02:26;;;;;;;4.22;1.30;;;;;;;;;;5022328;28;20026;-66
2023/04/02 14:04:55;;;;;;;4.10;1.30;;;;;;;;;;5020114;28;20033;-67
2023/04/02 14:07:44;;;;;;;5.45;1.30;;;;;;;;;;5034451;28;20029;-67
2023/04/02 14:10:20;;;;;;;4.25;1.20;;;;;;;;;;5017321;28;20040;-65
2023/04/02 14:13:01;;;;;;;5.40;1.40;;;;;;;;;;5022915;28;20097;-65
2023/04/02 14:15:44;;;;;;;4.82;1.30;;;;;;;;;;5017827;28;20112;-67
2023/04/02 14:18:20;;;;;;;3.83;1.30;;;;;;;;;;5025146;28;20471;-65
2023/04/02 14:21:01;;;;;;;5.88;1.42;;;;;;;;;;5033946;28;20025;-64
2023/04/02 14:23:47;;;;;;;4.80;1.33;;;;;;;;;;5033714;28;20028;-66
2023/04/02 14:26:12;;;;;;;6.82;1.50;;;;;;;;;;5032245;28;20030;-66
2023/04/02 14:28:56;;;;;;;5.03;1.50;;;;;;;;;;5041899;28;20025;-64
2023/04/02 14:31:21;;;;;;;3.95;1.40;;;;;;;;;;5022968;28;20044;-66
2023/04/02 14:33:50;;;;;;;5.00;1.10;;;;;;;;;;5034047;28;20014;-67
2023/04/02 14:36:22;;;;;;;4.93;1.35;;;;;;;;;;5021292;28;20432;-66
2023/04/02 14:38:47;;;;;;;5.47;1.27;;;;;;;;;;5032716;28;20064;-67
2023/04/02 14:41:16;;;;;;;3.60;1.20;;;;;;;;;;5033635;28;20045;-65
2023/04/02 14:43:50;;;;;;;4.38;1.20;;;;;;;;;;5032486;28;20492;-66
2023/04/02 14:46:15;;;;;;;4.60;1.20;;;;;;;;;;5020983;28;20029;-67
2023/04/02 14:48:43;;;;;;;4.10;1.30;;;;;;;;;;5020804;28;20022;-66
2023/04/02 14:51:23;;;;;;;4.88;1.25;;;;;;;;;;5013327;28;20088;-66
2023/04/02 14:53:53;;;;;;;6.13;1.38;;;;;;;;;;5023509;28;20021;-66
2023/04/02 14:56:20;;;;;;;3.88;1.40;;;;;;;;;;5031818;28;20036;-66
2023/04/02 14:58:47;;;;;;;4.53;1.98;;;;;;;;;;5025527;28;20119;-66
2023/04/02 15:01:15;;;;;;;3.97;1.63;;;;;;;;;;5022785;28;20326;-67
2023/04/02 15:03:43;;;;;;;4.53;1.58;;;;;;;;;;5027859;28;20093;-66